Flight Track Log - Related Links

Times and Time Zones

All times are in EDT time to prevent confusion due to time zone crossing. See the SKW2632 flight status page for this flight to view local times or setup timezone preferences in your user account.

Time Position Orientation Groundspeed Altitude Reporting Facility
EDT Latitude Longitude Course Direction KTS MPH feet Rate Location/Type
Sat 07:10:03 PM 33.9153 -118.4767 90° East 217 250 2,300  Level Los Angeles Center
Sat 07:11:04 PM 33.8808 -118.5281 231° Southwest 251 289 4,100 2,049 Climbing Los Angeles Center
Sat 07:12:06 PM 33.8031 -118.5486 192° South 275 316 6,500 2,516 Climbing Los Angeles Center
Sat 07:13:08 PM 33.7125 -118.5247 168° South 282 325 9,300 2,274 Climbing Los Angeles Center
Sat 07:14:10 PM 33.6736 -118.4400 119° Southeast 300 345 11,200 1,463 Climbing Los Angeles Center
Sat 07:15:00 PM 33.6333 -118.2290 90° East  Level FlightAware Approximate
Sat 07:15:11 PM 33.6442 -118.3275 107° East 326 375 12,300  Level Los Angeles Center
Sat 07:16:26 PM 33.6442 -118.2022 90° East 348 400 14,100 1,588 Climbing Los Angeles Center
Sat 07:17:27 PM 33.6436 -118.0592 90° East 359 413 15,900 1,610 Climbing Los Angeles Center
Sat 07:18:29 PM 33.6431 -117.9392 90° East 362 417 17,400 1,355 Climbing Los Angeles Center
Sat 07:19:31 PM 33.6431 -117.8158 90° East 369 425 18,700 1,122 Climbing Los Angeles Center
Sat 07:20:32 PM 33.6422 -117.6906 90° East 377 434 19,700 976 Climbing Los Angeles Center
Sat 07:21:34 PM 33.6414 -117.5619 90° East 386 444 20,700 968 Climbing Los Angeles Center
Sat 07:22:36 PM 33.6414 -117.4314 90° East 392 451 21,700 889 Climbing Los Angeles Center
Sat 07:23:49 PM 33.6408 -117.3011 90° East 392 451 22,700 1,067 Climbing Los Angeles Center
Sat 07:24:51 PM 33.6397 -117.1175 90° East 394 453 24,100 1,065 Climbing Los Angeles Center
Sat 07:25:53 PM 33.6386 -116.9869 91° East 393 452 24,900 629 Climbing Los Angeles Center
Sat 07:26:55 PM 33.6372 -116.8522 91° East 402 463 25,400 484 Climbing Los Angeles Center
Sat 07:27:57 PM 33.6350 -116.7172 91° East 411 473 25,900 488 Climbing Los Angeles Center
Sat 07:28:58 PM 33.6353 -116.5786 90° East 413 475 26,400 488 Climbing Los Angeles Center
Sat 07:30:00 PM 33.6317 -116.4372 92° East 420 483 26,900 484 Climbing Los Angeles Center
Sat 07:31:02 PM 33.6297 -116.2931 91° East 427 491 27,400 537 Climbing Los Angeles Center
Sat 07:32:03 PM 33.6269 -116.1242 91° East 423 487 28,000 489 Climbing Los Angeles Center
Sat 07:33:17 PM 33.6242 -115.9822 91° East 424 488 28,500 485 Climbing Los Angeles Center
Sat 07:34:19 PM 33.6208 -115.8122 91° East 425 489 29,100 532 Climbing Los Angeles Center
Sat 07:35:21 PM 33.6169 -115.6706 92° East 423 487 29,600 484 Climbing Los Angeles Center
Sat 07:36:23 PM 33.6147 -115.5289 91° East 424 488 30,100 488 Climbing Los Angeles Center
Sat 07:37:24 PM 33.6097 -115.3872 92° East 425 489 30,600 439 Climbing Los Angeles Center
Sat 07:38:26 PM 33.5925 -115.2492 98° East 420 483 31,000 194 Climbing Los Angeles Center
Sat 07:39:28 PM 33.5744 -115.0814 97° East 424 488 31,000  Level Los Angeles Center
Sat 07:40:30 PM 33.5583 -114.9383 98° East 433 498 31,000  Level Los Angeles Center
Sat 07:41:31 PM 33.5419 -114.7925 98° East 441 507 31,000  Level Los Angeles Center
Sat 07:42:33 PM 33.5306 -114.6772 97° East 437 503 31,000  Level Los Angeles Center
Sat 07:43:35 PM 33.5111 -114.5025 98° East 442 509 31,000 -927 Level Los Angeles Center
Sat 07:44:36 PM 33.4931 -114.3517 98° East 461 531 29,100 -2,098 Descending Los Angeles Center
Sat 07:45:38 PM 33.4747 -114.1994 98° East 463 533 26,700 -1,984 Descending Los Angeles Center
Sat 07:46:40 PM 33.4567 -114.0547 98° East 444 511 25,000 -844 Descending Los Angeles Center
Sat 07:47:46 PM 33.4261 -113.8981 103° East 425 489 24,900 -469 Descending Albuquerque Center
Sat 07:48:48 PM 33.3992 -113.7606 103° East 424 488 24,000 -1,122 Descending Albuquerque Center
Sat 07:49:49 PM 33.3711 -113.6267 104° East 419 482 22,600 -1,377 Descending Albuquerque Center
Sat 07:50:50 PM 33.3450 -113.4944 103° East 412 474 21,200 -1,475 Descending Albuquerque Center
Sat 07:51:51 PM 33.3128 -113.3422 104° East 398 458 19,600 -1,230 Descending Albuquerque Center
Sat 07:52:52 PM 33.2864 -113.2169 104° East 391 450 18,700 -1,131 Descending Albuquerque Center
Sat 07:53:53 PM 33.2744 -113.0931 97° East 382 440 17,300 -1,171 Descending Albuquerque Center
Sat 07:54:55 PM 33.2767 -112.9731 89° East 367 422 16,300 -976 Descending Albuquerque Center
Sat 07:55:56 PM 33.2786 -112.8556 89° East 358 412 15,300 -639 Descending Albuquerque Center
Sat 07:56:57 PM 33.2806 -112.7464 89° East 339 390 15,000 -344 Descending Albuquerque Center
Sat 07:57:58 PM 33.2831 -112.6381 88° East 329 379 14,600 -968 Descending Albuquerque Center
Sat 07:59:01 PM 33.2869 -112.5192 88° East 320 368 13,000 -1,403 Descending Albuquerque Center
Sat 08:00:02 PM 33.2897 -112.4114 88° East 326 375 11,700 -1,230 Descending Albuquerque Center
Sat 08:01:03 PM 33.2936 -112.3106 87° East 308 354 10,500 -1,279 Descending Albuquerque Center
Sat 08:02:04 PM 33.3019 -112.2103 84° East 304 350 9,100 -732 Descending Albuquerque Center
Sat 08:03:06 PM 33.3089 -112.1211 85° East 275 316 9,000 -390 Descending Albuquerque Center
Sat 08:04:07 PM 33.3247 -112.0386 77° East 259 298 8,300 -934 Descending Albuquerque Center
Sat 08:05:08 PM 33.3444 -111.9603 73° East 248 285 7,100 -1,033 Descending Albuquerque Center
Sat 08:06:09 PM 33.3450 -111.8778 90° East 250 288 6,200 -1,073 Descending Albuquerque Center
Sat 08:07:11 PM 33.4047 -111.8275 35° Northeast 239 275 4,900 -1,512 Descending Albuquerque Center
Sat 08:08:12 PM 33.4289 -111.8886 295° West 223 257 3,100 -1,409 Descending Albuquerque Center
Sat 08:09:23 PM 33.4333 -111.9667 274° West 157 181 1,800 -1,099 Descending Phoenix TRACON

Login

Don't have an account? Register now (free) for customized features, flight alerts, and more!